sensor_id;sensor_type;location;lat;lon;timestamp;P1;durP1;ratioP1;P2;durP2;ratioP2
20621;SDS011;10470;42.670;23.354;2023-02-12T00:00:32;14.93;;;9.30;;
20621;SDS011;10470;42.670;23.354;2023-02-12T00:03:18;18.67;;;8.63;;
20621;SDS011;10470;42.670;23.354;2023-02-12T00:06:04;12.30;;;7.23;;
20621;SDS011;10470;42.670;23.354;2023-02-12T00:08:50;13.93;;;8.73;;
20621;SDS011;10470;42.670;23.354;2023-02-12T00:11:37;17.20;;;8.67;;
20621;SDS011;10470;42.670;23.354;2023-02-12T00:14:22;14.90;;;8.57;;
20621;SDS011;10470;42.670;23.354;2023-02-12T00:17:08;17.00;;;8.80;;
20621;SDS011;10470;42.670;23.354;2023-02-12T00:19:53;14.73;;;8.60;;
20621;SDS011;10470;42.670;23.354;2023-02-12T00:22:38;15.87;;;8.33;;
20621;SDS011;10470;42.670;23.354;2023-02-12T00:25:24;15.80;;;9.07;;
20621;SDS011;10470;42.670;23.354;2023-02-12T00:28:09;15.23;;;9.40;;
20621;SDS011;10470;42.670;23.354;2023-02-12T00:30:54;16.77;;;8.37;;
20621;SDS011;10470;42.670;23.354;2023-02-12T00:33:40;15.17;;;9.23;;
20621;SDS011;10470;42.670;23.354;2023-02-12T00:36:27;16.03;;;9.23;;
20621;SDS011;10470;42.670;23.354;2023-02-12T00:39:14;15.90;;;8.10;;
20621;SDS011;10470;42.670;23.354;2023-02-12T00:41:59;14.23;;;8.30;;
20621;SDS011;10470;42.670;23.354;2023-02-12T00:44:45;14.57;;;8.17;;
20621;SDS011;10470;42.670;23.354;2023-02-12T00:47:30;12.43;;;8.00;;
20621;SDS011;10470;42.670;23.354;2023-02-12T00:50:16;16.87;;;8.93;;
20621;SDS011;10470;42.670;23.354;2023-02-12T00:53:01;16.23;;;9.47;;
20621;SDS011;10470;42.670;23.354;2023-02-12T00:55:47;14.00;;;8.67;;
20621;SDS011;10470;42.670;23.354;2023-02-12T00:58:32;15.73;;;9.03;;
20621;SDS011;10470;42.670;23.354;2023-02-12T01:01:17;16.80;;;8.97;;
20621;SDS011;10470;42.670;23.354;2023-02-12T01:04:03;14.07;;;8.57;;
20621;SDS011;10470;42.670;23.354;2023-02-12T01:06:49;13.27;;;8.03;;
20621;SDS011;10470;42.670;23.354;2023-02-12T01:09:34;15.83;;;8.63;;
20621;SDS011;10470;42.670;23.354;2023-02-12T01:12:20;15.87;;;9.57;;
20621;SDS011;10470;42.670;23.354;2023-02-12T01:15:06;16.43;;;9.37;;
20621;SDS011;10470;42.670;23.354;2023-02-12T01:17:54;19.10;;;9.67;;
20621;SDS011;10470;42.670;23.354;2023-02-12T01:20:39;14.50;;;8.83;;
20621;SDS011;10470;42.670;23.354;2023-02-12T01:23:25;13.60;;;8.43;;
20621;SDS011;10470;42.670;23.354;2023-02-12T01:26:11;16.20;;;8.87;;
20621;SDS011;10470;42.670;23.354;2023-02-12T01:28:58;13.57;;;8.20;;
20621;SDS011;10470;42.670;23.354;2023-02-12T01:31:45;15.80;;;9.30;;
20621;SDS011;10470;42.670;23.354;2023-02-12T01:34:31;17.97;;;9.90;;
20621;SDS011;10470;42.670;23.354;2023-02-12T01:37:16;18.90;;;10.57;;
20621;SDS011;10470;42.670;23.354;2023-02-12T01:40:02;18.07;;;10.00;;
20621;SDS011;10470;42.670;23.354;2023-02-12T01:42:48;16.90;;;9.90;;
20621;SDS011;10470;42.670;23.354;2023-02-12T01:45:44;15.47;;;9.77;;
20621;SDS011;10470;42.670;23.354;2023-02-12T01:48:33;16.07;;;8.37;;
20621;SDS011;10470;42.670;23.354;2023-02-12T01:51:22;19.13;;;9.90;;
20621;SDS011;10470;42.670;23.354;2023-02-12T01:54:09;16.33;;;9.87;;
20621;SDS011;10470;42.670;23.354;2023-02-12T01:56:58;16.97;;;9.93;;
20621;SDS011;10470;42.670;23.354;2023-02-12T01:59:44;19.53;;;10.13;;
20621;SDS011;10470;42.670;23.354;2023-02-12T02:02:36;17.87;;;10.30;;
20621;SDS011;10470;42.670;23.354;2023-02-12T02:05:30;18.43;;;10.23;;
20621;SDS011;10470;42.670;23.354;2023-02-12T02:08:30;18.03;;;10.10;;
20621;SDS011;10470;42.670;23.354;2023-02-12T02:11:16;18.50;;;10.37;;
20621;SDS011;10470;42.670;23.354;2023-02-12T02:14:20;18.80;;;11.03;;
20621;SDS011;10470;42.670;23.354;2023-02-12T02:17:34;20.33;;;11.07;;
20621;SDS011;10470;42.670;23.354;2023-02-12T02:33:19;26.87;;;13.03;;
20621;SDS011;10470;42.670;23.354;2023-02-12T02:39:16;20.20;;;11.33;;
20621;SDS011;10470;42.670;23.354;2023-02-12T02:42:10;21.07;;;11.30;;
20621;SDS011;10470;42.670;23.354;2023-02-12T02:45:00;19.67;;;10.60;;
20621;SDS011;10470;42.670;23.354;2023-02-12T02:48:04;21.17;;;11.47;;
20621;SDS011;10470;42.670;23.354;2023-02-12T02:50:55;21.23;;;11.60;;
20621;SDS011;10470;42.670;23.354;2023-02-12T02:53:47;19.67;;;10.23;;
20621;SDS011;10470;42.670;23.354;2023-02-12T02:56:36;18.30;;;11.20;;
20621;SDS011;10470;42.670;23.354;2023-02-12T02:59:25;21.47;;;12.13;;
20621;SDS011;10470;42.670;23.354;2023-02-12T03:02:18;21.50;;;12.00;;
20621;SDS011;10470;42.670;23.354;2023-02-12T03:07:53;21.83;;;12.80;;
20621;SDS011;10470;42.670;23.354;2023-02-12T03:10:43;22.97;;;13.03;;
20621;SDS011;10470;42.670;23.354;2023-02-12T03:13:35;24.43;;;12.37;;
20621;SDS011;10470;42.670;23.354;2023-02-12T03:16:28;22.67;;;12.37;;
20621;SDS011;10470;42.670;23.354;2023-02-12T03:19:18;22.77;;;12.73;;
20621;SDS011;10470;42.670;23.354;2023-02-12T03:22:11;19.27;;;11.83;;
20621;SDS011;10470;42.670;23.354;2023-02-12T03:25:02;23.10;;;13.33;;
20621;SDS011;10470;42.670;23.354;2023-02-12T03:28:02;20.50;;;11.83;;
20621;SDS011;10470;42.670;23.354;2023-02-12T03:31:04;23.43;;;11.43;;
20621;SDS011;10470;42.670;23.354;2023-02-12T03:34:08;24.57;;;11.70;;
20621;SDS011;10470;42.670;23.354;2023-02-12T03:37:11;19.90;;;12.30;;
20621;SDS011;10470;42.670;23.354;2023-02-12T03:40:17;25.40;;;13.50;;
20621;SDS011;10470;42.670;23.354;2023-02-12T03:46:18;22.80;;;13.70;;
20621;SDS011;10470;42.670;23.354;2023-02-12T03:49:11;22.40;;;12.67;;
20621;SDS011;10470;42.670;23.354;2023-02-12T03:52:05;24.77;;;13.07;;
20621;SDS011;10470;42.670;23.354;2023-02-12T03:54:51;26.67;;;13.70;;
20621;SDS011;10470;42.670;23.354;2023-02-12T03:57:41;22.80;;;13.27;;
20621;SDS011;10470;42.670;23.354;2023-02-12T04:00:32;25.47;;;13.60;;
20621;SDS011;10470;42.670;23.354;2023-02-12T04:03:17;24.07;;;13.03;;
20621;SDS011;10470;42.670;23.354;2023-02-12T04:06:03;23.60;;;12.83;;
20621;SDS011;10470;42.670;23.354;2023-02-12T04:08:49;24.17;;;12.83;;
20621;SDS011;10470;42.670;23.354;2023-02-12T04:11:44;23.03;;;13.07;;
20621;SDS011;10470;42.670;23.354;2023-02-12T04:27:08;24.70;;;13.60;;
20621;SDS011;10470;42.670;23.354;2023-02-12T04:30:05;24.70;;;13.87;;
20621;SDS011;10470;42.670;23.354;2023-02-12T04:33:01;24.73;;;13.63;;
20621;SDS011;10470;42.670;23.354;2023-02-12T04:35:50;27.13;;;12.93;;
20621;SDS011;10470;42.670;23.354;2023-02-12T04:38:50;23.87;;;13.20;;
20621;SDS011;10470;42.670;23.354;2023-02-12T04:41:39;23.70;;;13.37;;
20621;SDS011;10470;42.670;23.354;2023-02-12T04:44:26;22.53;;;12.77;;
20621;SDS011;10470;42.670;23.354;2023-02-12T04:47:15;23.50;;;13.77;;
20621;SDS011;10470;42.670;23.354;2023-02-12T04:50:01;23.53;;;13.10;;
20621;SDS011;10470;42.670;23.354;2023-02-12T04:52:46;24.00;;;13.10;;
20621;SDS011;10470;42.670;23.354;2023-02-12T04:55:32;21.70;;;12.73;;
20621;SDS011;10470;42.670;23.354;2023-02-12T04:58:18;23.03;;;12.87;;
20621;SDS011;10470;42.670;23.354;2023-02-12T05:01:03;28.43;;;12.90;;
20621;SDS011;10470;42.670;23.354;2023-02-12T05:03:50;23.70;;;13.27;;
20621;SDS011;10470;42.670;23.354;2023-02-12T05:06:35;22.83;;;12.40;;
20621;SDS011;10470;42.670;23.354;2023-02-12T05:09:22;23.80;;;12.93;;
20621;SDS011;10470;42.670;23.354;2023-02-12T05:12:07;23.77;;;14.13;;
20621;SDS011;10470;42.670;23.354;2023-02-12T05:14:53;21.27;;;12.63;;
20621;SDS011;10470;42.670;23.354;2023-02-12T05:17:38;23.97;;;12.97;;
20621;SDS011;10470;42.670;23.354;2023-02-12T05:20:24;23.67;;;13.07;;
20621;SDS011;10470;42.670;23.354;2023-02-12T05:23:09;22.07;;;12.93;;
20621;SDS011;10470;42.670;23.354;2023-02-12T05:25:57;19.93;;;11.60;;
20621;SDS011;10470;42.670;23.354;2023-02-12T05:28:43;22.83;;;11.87;;
20621;SDS011;10470;42.670;23.354;2023-02-12T05:31:28;20.87;;;10.10;;
20621;SDS011;10470;42.670;23.354;2023-02-12T05:34:14;21.33;;;12.20;;
20621;SDS011;10470;42.670;23.354;2023-02-12T05:36:59;20.93;;;10.97;;
20621;SDS011;10470;42.670;23.354;2023-02-12T05:39:47;24.10;;;12.57;;
20621;SDS011;10470;42.670;23.354;2023-02-12T05:42:34;22.00;;;12.10;;
20621;SDS011;10470;42.670;23.354;2023-02-12T05:45:19;26.17;;;12.57;;
20621;SDS011;10470;42.670;23.354;2023-02-12T05:48:05;23.50;;;12.03;;
20621;SDS011;10470;42.670;23.354;2023-02-12T05:50:51;29.93;;;14.60;;
20621;SDS011;10470;42.670;23.354;2023-02-12T05:53:37;23.87;;;11.80;;
20621;SDS011;10470;42.670;23.354;2023-02-12T05:56:24;22.50;;;10.80;;
20621;SDS011;10470;42.670;23.354;2023-02-12T05:59:16;21.30;;;11.87;;
20621;SDS011;10470;42.670;23.354;2023-02-12T06:02:05;25.40;;;12.67;;
20621;SDS011;10470;42.670;23.354;2023-02-12T06:04:51;24.47;;;13.07;;
20621;SDS011;10470;42.670;23.354;2023-02-12T06:07:36;27.40;;;14.53;;
20621;SDS011;10470;42.670;23.354;2023-02-12T06:10:22;25.87;;;13.93;;
20621;SDS011;10470;42.670;23.354;2023-02-12T06:13:07;22.57;;;13.40;;
20621;SDS011;10470;42.670;23.354;2023-02-12T06:15:52;24.17;;;12.70;;
20621;SDS011;10470;42.670;23.354;2023-02-12T06:18:38;22.90;;;11.30;;
20621;SDS011;10470;42.670;23.354;2023-02-12T06:21:24;22.27;;;12.20;;
20621;SDS011;10470;42.670;23.354;2023-02-12T06:24:14;23.90;;;12.47;;
20621;SDS011;10470;42.670;23.354;2023-02-12T06:27:00;21.83;;;11.77;;
20621;SDS011;10470;42.670;23.354;2023-02-12T06:29:45;21.07;;;11.13;;
20621;SDS011;10470;42.670;23.354;2023-02-12T06:32:31;20.60;;;11.07;;
20621;SDS011;10470;42.670;23.354;2023-02-12T06:35:16;23.83;;;11.57;;
20621;SDS011;10470;42.670;23.354;2023-02-12T06:38:02;23.17;;;11.33;;
20621;SDS011;10470;42.670;23.354;2023-02-12T06:40:48;19.43;;;9.97;;
20621;SDS011;10470;42.670;23.354;2023-02-12T06:43:33;13.83;;;6.77;;
20621;SDS011;10470;42.670;23.354;2023-02-12T06:46:19;19.07;;;10.83;;
20621;SDS011;10470;42.670;23.354;2023-02-12T06:49:04;18.83;;;10.40;;
20621;SDS011;10470;42.670;23.354;2023-02-12T06:51:50;20.50;;;11.07;;
20621;SDS011;10470;42.670;23.354;2023-02-12T06:54:35;20.30;;;10.20;;
20621;SDS011;10470;42.670;23.354;2023-02-12T06:57:21;21.57;;;12.33;;
20621;SDS011;10470;42.670;23.354;2023-02-12T07:00:07;24.00;;;11.97;;
20621;SDS011;10470;42.670;23.354;2023-02-12T07:02:53;19.07;;;10.83;;
20621;SDS011;10470;42.670;23.354;2023-02-12T07:05:39;18.43;;;9.50;;
20621;SDS011;10470;42.670;23.354;2023-02-12T07:08:24;20.07;;;11.07;;
20621;SDS011;10470;42.670;23.354;2023-02-12T07:11:10;27.50;;;13.70;;
20621;SDS011;10470;42.670;23.354;2023-02-12T07:13:55;22.23;;;11.87;;
20621;SDS011;10470;42.670;23.354;2023-02-12T07:16:41;23.83;;;12.07;;
20621;SDS011;10470;42.670;23.354;2023-02-12T07:19:27;24.60;;;12.20;;
20621;SDS011;10470;42.670;23.354;2023-02-12T07:22:12;20.97;;;11.90;;
20621;SDS011;10470;42.670;23.354;2023-02-12T07:24:57;21.30;;;12.00;;
20621;SDS011;10470;42.670;23.354;2023-02-12T07:27:43;23.77;;;12.70;;
20621;SDS011;10470;42.670;23.354;2023-02-12T07:30:28;20.00;;;11.00;;
20621;SDS011;10470;42.670;23.354;2023-02-12T07:33:14;21.90;;;12.03;;
20621;SDS011;10470;42.670;23.354;2023-02-12T07:36:00;22.80;;;12.77;;
20621;SDS011;10470;42.670;23.354;2023-02-12T07:38:46;19.70;;;11.70;;
20621;SDS011;10470;42.670;23.354;2023-02-12T07:41:33;14.80;;;8.53;;
20621;SDS011;10470;42.670;23.354;2023-02-12T07:44:20;23.00;;;13.17;;
20621;SDS011;10470;42.670;23.354;2023-02-12T07:47:05;26.43;;;14.17;;
20621;SDS011;10470;42.670;23.354;2023-02-12T07:49:51;19.73;;;11.97;;
20621;SDS011;10470;42.670;23.354;2023-02-12T07:52:36;22.17;;;11.90;;
20621;SDS011;10470;42.670;23.354;2023-02-12T07:55:22;29.70;;;15.57;;
20621;SDS011;10470;42.670;23.354;2023-02-12T07:58:07;23.27;;;13.47;;
20621;SDS011;10470;42.670;23.354;2023-02-12T08:00:53;25.73;;;13.70;;
20621;SDS011;10470;42.670;23.354;2023-02-12T08:03:38;25.67;;;14.27;;
20621;SDS011;10470;42.670;23.354;2023-02-12T08:06:25;15.50;;;8.10;;
20621;SDS011;10470;42.670;23.354;2023-02-12T08:09:14;27.20;;;15.07;;
20621;SDS011;10470;42.670;23.354;2023-02-12T08:12:04;25.67;;;13.90;;
20621;SDS011;10470;42.670;23.354;2023-02-12T08:14:49;28.30;;;14.90;;
20621;SDS011;10470;42.670;23.354;2023-02-12T08:17:35;26.23;;;14.43;;
20621;SDS011;10470;42.670;23.354;2023-02-12T08:20:20;25.43;;;14.50;;
20621;SDS011;10470;42.670;23.354;2023-02-12T08:23:06;29.77;;;15.13;;
20621;SDS011;10470;42.670;23.354;2023-02-12T08:25:51;25.50;;;15.67;;
20621;SDS011;10470;42.670;23.354;2023-02-12T08:28:37;27.70;;;14.93;;
20621;SDS011;10470;42.670;23.354;2023-02-12T08:31:25;27.27;;;13.87;;
20621;SDS011;10470;42.670;23.354;2023-02-12T08:37:05;29.47;;;17.17;;
20621;SDS011;10470;42.670;23.354;2023-02-12T08:39:51;25.53;;;15.17;;
20621;SDS011;10470;42.670;23.354;2023-02-12T08:42:36;25.33;;;15.07;;
20621;SDS011;10470;42.670;23.354;2023-02-12T08:45:22;30.37;;;16.77;;
20621;SDS011;10470;42.670;23.354;2023-02-12T08:48:07;31.40;;;16.60;;
20621;SDS011;10470;42.670;23.354;2023-02-12T08:50:52;22.70;;;13.13;;
20621;SDS011;10470;42.670;23.354;2023-02-12T08:53:38;29.33;;;16.80;;
20621;SDS011;10470;42.670;23.354;2023-02-12T08:56:26;30.37;;;17.67;;
20621;SDS011;10470;42.670;23.354;2023-02-12T08:59:14;30.37;;;17.53;;
20621;SDS011;10470;42.670;23.354;2023-02-12T09:02:00;33.20;;;17.90;;
20621;SDS011;10470;42.670;23.354;2023-02-12T09:04:48;29.10;;;15.70;;
20621;SDS011;10470;42.670;23.354;2023-02-12T09:07:33;30.40;;;17.70;;
20621;SDS011;10470;42.670;23.354;2023-02-12T09:10:19;25.63;;;14.27;;
20621;SDS011;10470;42.670;23.354;2023-02-12T09:13:05;27.53;;;16.97;;
20621;SDS011;10470;42.670;23.354;2023-02-12T09:15:52;33.07;;;17.97;;
20621;SDS011;10470;42.670;23.354;2023-02-12T09:18:37;33.17;;;18.70;;
20621;SDS011;10470;42.670;23.354;2023-02-12T09:21:23;31.10;;;17.87;;
20621;SDS011;10470;42.670;23.354;2023-02-12T09:24:09;36.90;;;17.87;;
20621;SDS011;10470;42.670;23.354;2023-02-12T09:26:55;31.73;;;16.90;;
20621;SDS011;10470;42.670;23.354;2023-02-12T09:29:40;29.77;;;17.33;;
20621;SDS011;10470;42.670;23.354;2023-02-12T09:32:26;34.90;;;18.33;;
20621;SDS011;10470;42.670;23.354;2023-02-12T09:35:11;29.77;;;17.20;;
20621;SDS011;10470;42.670;23.354;2023-02-12T09:37:56;24.47;;;13.10;;
20621;SDS011;10470;42.670;23.354;2023-02-12T09:46:57;29.80;;;16.53;;
20621;SDS011;10470;42.670;23.354;2023-02-12T09:52:53;28.30;;;15.33;;
20621;SDS011;10470;42.670;23.354;2023-02-12T09:55:41;30.20;;;17.90;;
20621;SDS011;10470;42.670;23.354;2023-02-12T10:01:16;41.63;;;21.27;;
20621;SDS011;10470;42.670;23.354;2023-02-12T10:04:03;37.77;;;19.63;;
20621;SDS011;10470;42.670;23.354;2023-02-12T10:06:51;30.03;;;16.67;;
20621;SDS011;10470;42.670;23.354;2023-02-12T10:13:11;32.43;;;18.20;;
20621;SDS011;10470;42.670;23.354;2023-02-12T10:25:08;34.13;;;19.10;;
20621;SDS011;10470;42.670;23.354;2023-02-12T10:28:07;34.07;;;18.70;;
20621;SDS011;10470;42.670;23.354;2023-02-12T10:30:57;35.67;;;20.47;;
20621;SDS011;10470;42.670;23.354;2023-02-12T10:33:47;37.20;;;21.13;;
20621;SDS011;10470;42.670;23.354;2023-02-12T10:36:44;39.33;;;21.00;;
20621;SDS011;10470;42.670;23.354;2023-02-12T10:39:34;30.40;;;17.47;;
20621;SDS011;10470;42.670;23.354;2023-02-12T10:42:31;32.90;;;18.77;;
20621;SDS011;10470;42.670;23.354;2023-02-12T10:45:28;38.00;;;22.30;;
20621;SDS011;10470;42.670;23.354;2023-02-12T10:48:17;38.33;;;21.90;;
20621;SDS011;10470;42.670;23.354;2023-02-12T10:53:54;39.33;;;21.43;;
20621;SDS011;10470;42.670;23.354;2023-02-12T10:56:39;40.23;;;21.77;;
20621;SDS011;10470;42.670;23.354;2023-02-12T10:59:25;41.80;;;23.97;;
20621;SDS011;10470;42.670;23.354;2023-02-12T11:02:16;46.27;;;24.07;;
20621;SDS011;10470;42.670;23.354;2023-02-12T11:05:14;50.73;;;26.53;;
20621;SDS011;10470;42.670;23.354;2023-02-12T11:08:11;42.47;;;23.83;;
20621;SDS011;10470;42.670;23.354;2023-02-12T11:11:22;46.63;;;24.80;;
20621;SDS011;10470;42.670;23.354;2023-02-12T11:14:18;45.00;;;24.27;;
20621;SDS011;10470;42.670;23.354;2023-02-12T11:17:22;43.87;;;24.33;;
20621;SDS011;10470;42.670;23.354;2023-02-12T11:23:03;44.57;;;25.63;;
20621;SDS011;10470;42.670;23.354;2023-02-12T11:25:56;47.03;;;24.37;;
20621;SDS011;10470;42.670;23.354;2023-02-12T11:29:21;39.87;;;22.27;;
20621;SDS011;10470;42.670;23.354;2023-02-12T11:32:18;39.23;;;21.77;;
20621;SDS011;10470;42.670;23.354;2023-02-12T11:37:59;39.23;;;21.77;;
20621;SDS011;10470;42.670;23.354;2023-02-12T11:40:46;39.23;;;21.97;;
20621;SDS011;10470;42.670;23.354;2023-02-12T11:43:32;35.97;;;20.63;;
20621;SDS011;10470;42.670;23.354;2023-02-12T11:46:24;42.67;;;18.43;;
20621;SDS011;10470;42.670;23.354;2023-02-12T11:49:13;37.53;;;19.37;;
20621;SDS011;10470;42.670;23.354;2023-02-12T11:52:27;38.03;;;22.13;;
20621;SDS011;10470;42.670;23.354;2023-02-12T11:58:14;41.60;;;23.47;;
20621;SDS011;10470;42.670;23.354;2023-02-12T12:01:07;42.33;;;22.03;;
20621;SDS011;10470;42.670;23.354;2023-02-12T12:04:14;42.93;;;24.37;;
20621;SDS011;10470;42.670;23.354;2023-02-12T12:07:11;39.17;;;22.47;;
20621;SDS011;10470;42.670;23.354;2023-02-12T12:10:06;40.17;;;22.70;;
20621;SDS011;10470;42.670;23.354;2023-02-12T12:13:19;36.43;;;21.07;;
20621;SDS011;10470;42.670;23.354;2023-02-12T12:16:17;39.37;;;21.80;;
20621;SDS011;10470;42.670;23.354;2023-02-12T12:19:27;38.50;;;21.03;;
20621;SDS011;10470;42.670;23.354;2023-02-12T12:25:53;41.77;;;23.13;;
20621;SDS011;10470;42.670;23.354;2023-02-12T12:31:52;37.47;;;21.03;;
20621;SDS011;10470;42.670;23.354;2023-02-12T12:34:43;37.90;;;21.17;;
20621;SDS011;10470;42.670;23.354;2023-02-12T12:40:44;35.53;;;20.00;;
20621;SDS011;10470;42.670;23.354;2023-02-12T12:43:56;38.80;;;21.27;;
20621;SDS011;10470;42.670;23.354;2023-02-12T12:53:20;33.30;;;20.10;;
20621;SDS011;10470;42.670;23.354;2023-02-12T13:12:42;36.20;;;19.63;;
20621;SDS011;10470;42.670;23.354;2023-02-12T13:30:22;36.97;;;22.80;;
20621;SDS011;10470;42.670;23.354;2023-02-12T13:33:14;38.90;;;22.37;;
20621;SDS011;10470;42.670;23.354;2023-02-12T13:36:05;38.93;;;22.77;;
20621;SDS011;10470;42.670;23.354;2023-02-12T13:39:05;38.63;;;21.50;;
20621;SDS011;10470;42.670;23.354;2023-02-12T13:42:02;40.43;;;23.00;;
20621;SDS011;10470;42.670;23.354;2023-02-12T13:50:45;35.63;;;20.70;;
20621;SDS011;10470;42.670;23.354;2023-02-12T13:56:52;37.27;;;21.20;;
20621;SDS011;10470;42.670;23.354;2023-02-12T13:59:45;32.60;;;18.50;;
20621;SDS011;10470;42.670;23.354;2023-02-12T14:05:27;38.40;;;22.57;;
20621;SDS011;10470;42.670;23.354;2023-02-12T14:11:22;38.40;;;21.73;;
20621;SDS011;10470;42.670;23.354;2023-02-12T14:14:09;42.50;;;23.77;;
20621;SDS011;10470;42.670;23.354;2023-02-12T14:16:55;37.50;;;22.17;;
20621;SDS011;10470;42.670;23.354;2023-02-12T14:19:52;41.50;;;23.10;;
20621;SDS011;10470;42.670;23.354;2023-02-12T14:25:36;43.57;;;24.07;;
20621;SDS011;10470;42.670;23.354;2023-02-12T14:28:30;39.40;;;21.10;;
20621;SDS011;10470;42.670;23.354;2023-02-12T14:37:09;39.90;;;23.77;;
20621;SDS011;10470;42.670;23.354;2023-02-12T14:43:23;41.87;;;24.00;;
20621;SDS011;10470;42.670;23.354;2023-02-12T14:49:16;38.83;;;22.07;;
20621;SDS011;10470;42.670;23.354;2023-02-12T14:57:47;44.23;;;25.27;;
20621;SDS011;10470;42.670;23.354;2023-02-12T15:00:39;43.47;;;24.00;;
20621;SDS011;10470;42.670;23.354;2023-02-12T15:03:43;46.60;;;25.80;;
20621;SDS011;10470;42.670;23.354;2023-02-12T15:06:37;46.53;;;25.67;;
20621;SDS011;10470;42.670;23.354;2023-02-12T15:12:19;49.77;;;26.47;;
20621;SDS011;10470;42.670;23.354;2023-02-12T15:18:28;43.73;;;25.50;;
20621;SDS011;10470;42.670;23.354;2023-02-12T15:21:34;47.03;;;26.23;;
20621;SDS011;10470;42.670;23.354;2023-02-12T15:24:23;45.67;;;26.57;;
20621;SDS011;10470;42.670;23.354;2023-02-12T15:27:09;49.63;;;26.47;;
20621;SDS011;10470;42.670;23.354;2023-02-12T15:29:59;48.93;;;24.80;;
20621;SDS011;10470;42.670;23.354;2023-02-12T15:32:45;48.97;;;27.10;;
20621;SDS011;10470;42.670;23.354;2023-02-12T15:35:32;49.03;;;27.20;;
20621;SDS011;10470;42.670;23.354;2023-02-12T15:38:21;51.93;;;27.30;;
20621;SDS011;10470;42.670;23.354;2023-02-12T15:44:28;50.13;;;28.90;;
20621;SDS011;10470;42.670;23.354;2023-02-12T15:47:15;50.03;;;27.73;;
20621;SDS011;10470;42.670;23.354;2023-02-12T15:50:01;50.60;;;28.20;;
20621;SDS011;10470;42.670;23.354;2023-02-12T15:52:46;56.37;;;29.10;;
20621;SDS011;10470;42.670;23.354;2023-02-12T15:55:35;52.10;;;28.47;;
20621;SDS011;10470;42.670;23.354;2023-02-12T16:01:16;53.77;;;29.13;;
20621;SDS011;10470;42.670;23.354;2023-02-12T16:04:04;52.83;;;29.60;;
20621;SDS011;10470;42.670;23.354;2023-02-12T16:06:51;55.47;;;29.73;;
20621;SDS011;10470;42.670;23.354;2023-02-12T16:09:37;56.90;;;31.03;;
20621;SDS011;10470;42.670;23.354;2023-02-12T16:12:24;52.70;;;29.57;;
20621;SDS011;10470;42.670;23.354;2023-02-12T16:15:30;52.73;;;30.50;;
20621;SDS011;10470;42.670;23.354;2023-02-12T16:18:25;53.80;;;29.90;;
20621;SDS011;10470;42.670;23.354;2023-02-12T16:21:20;54.87;;;31.20;;
20621;SDS011;10470;42.670;23.354;2023-02-12T16:24:27;54.77;;;29.73;;
20621;SDS011;10470;42.670;23.354;2023-02-12T16:39:09;52.63;;;29.07;;
20621;SDS011;10470;42.670;23.354;2023-02-12T16:42:27;53.87;;;30.17;;
20621;SDS011;10470;42.670;23.354;2023-02-12T16:48:17;55.73;;;31.27;;
20621;SDS011;10470;42.670;23.354;2023-02-12T16:51:29;58.57;;;32.13;;
20621;SDS011;10470;42.670;23.354;2023-02-12T16:57:09;55.43;;;31.80;;
20621;SDS011;10470;42.670;23.354;2023-02-12T16:59:56;63.80;;;32.07;;
20621;SDS011;10470;42.670;23.354;2023-02-12T17:02:41;58.93;;;32.53;;
20621;SDS011;10470;42.670;23.354;2023-02-12T17:05:27;60.93;;;33.57;;
20621;SDS011;10470;42.670;23.354;2023-02-12T17:08:14;59.87;;;32.57;;
20621;SDS011;10470;42.670;23.354;2023-02-12T17:11:00;61.00;;;33.33;;
20621;SDS011;10470;42.670;23.354;2023-02-12T17:13:46;69.40;;;36.53;;
20621;SDS011;10470;42.670;23.354;2023-02-12T17:16:33;65.97;;;34.33;;
20621;SDS011;10470;42.670;23.354;2023-02-12T17:19:18;59.60;;;34.57;;
20621;SDS011;10470;42.670;23.354;2023-02-12T17:22:04;64.20;;;35.63;;
20621;SDS011;10470;42.670;23.354;2023-02-12T17:24:52;65.33;;;34.47;;
20621;SDS011;10470;42.670;23.354;2023-02-12T17:27:38;65.77;;;35.97;;
20621;SDS011;10470;42.670;23.354;2023-02-12T17:30:24;63.07;;;34.90;;
20621;SDS011;10470;42.670;23.354;2023-02-12T17:33:10;70.33;;;35.43;;
20621;SDS011;10470;42.670;23.354;2023-02-12T17:35:56;68.67;;;36.60;;
20621;SDS011;10470;42.670;23.354;2023-02-12T17:38:43;63.70;;;34.40;;
20621;SDS011;10470;42.670;23.354;2023-02-12T17:41:28;62.67;;;34.43;;
20621;SDS011;10470;42.670;23.354;2023-02-12T17:44:14;66.70;;;34.07;;
20621;SDS011;10470;42.670;23.354;2023-02-12T17:47:00;64.33;;;34.20;;
20621;SDS011;10470;42.670;23.354;2023-02-12T17:49:45;70.87;;;35.83;;
20621;SDS011;10470;42.670;23.354;2023-02-12T17:52:31;71.13;;;37.17;;
20621;SDS011;10470;42.670;23.354;2023-02-12T17:55:17;76.43;;;39.50;;
20621;SDS011;10470;42.670;23.354;2023-02-12T17:58:02;72.67;;;38.77;;
20621;SDS011;10470;42.670;23.354;2023-02-12T18:00:47;68.83;;;36.07;;
20621;SDS011;10470;42.670;23.354;2023-02-12T18:03:33;72.10;;;37.90;;
20621;SDS011;10470;42.670;23.354;2023-02-12T18:06:24;73.70;;;38.33;;
20621;SDS011;10470;42.670;23.354;2023-02-12T18:09:12;75.37;;;38.10;;
20621;SDS011;10470;42.670;23.354;2023-02-12T18:11:58;68.20;;;36.63;;
20621;SDS011;10470;42.670;23.354;2023-02-12T18:14:43;74.50;;;39.63;;
20621;SDS011;10470;42.670;23.354;2023-02-12T18:17:29;72.93;;;39.10;;
20621;SDS011;10470;42.670;23.354;2023-02-12T18:20:15;70.73;;;38.17;;
20621;SDS011;10470;42.670;23.354;2023-02-12T18:23:00;78.17;;;41.13;;
20621;SDS011;10470;42.670;23.354;2023-02-12T18:25:47;74.57;;;41.30;;
20621;SDS011;10470;42.670;23.354;2023-02-12T18:28:33;78.90;;;41.07;;
20621;SDS011;10470;42.670;23.354;2023-02-12T18:31:19;78.93;;;41.23;;
20621;SDS011;10470;42.670;23.354;2023-02-12T18:34:05;77.13;;;40.80;;
20621;SDS011;10470;42.670;23.354;2023-02-12T18:36:51;78.17;;;40.00;;
20621;SDS011;10470;42.670;23.354;2023-02-12T18:39:36;78.97;;;41.10;;
20621;SDS011;10470;42.670;23.354;2023-02-12T18:42:22;72.47;;;39.17;;
20621;SDS011;10470;42.670;23.354;2023-02-12T18:45:08;74.97;;;40.03;;
20621;SDS011;10470;42.670;23.354;2023-02-12T18:47:54;75.07;;;39.57;;
20621;SDS011;10470;42.670;23.354;2023-02-12T18:50:39;74.50;;;39.63;;
20621;SDS011;10470;42.670;23.354;2023-02-12T18:53:24;71.00;;;39.77;;
20621;SDS011;10470;42.670;23.354;2023-02-12T18:56:11;77.77;;;38.30;;
20621;SDS011;10470;42.670;23.354;2023-02-12T18:58:57;75.33;;;40.40;;
20621;SDS011;10470;42.670;23.354;2023-02-12T19:01:44;72.70;;;39.77;;
20621;SDS011;10470;42.670;23.354;2023-02-12T19:04:31;74.77;;;39.70;;
20621;SDS011;10470;42.670;23.354;2023-02-12T19:07:17;78.50;;;40.17;;
20621;SDS011;10470;42.670;23.354;2023-02-12T19:10:02;85.27;;;43.33;;
20621;SDS011;10470;42.670;23.354;2023-02-12T19:12:48;79.73;;;42.17;;
20621;SDS011;10470;42.670;23.354;2023-02-12T19:15:36;82.37;;;42.23;;
20621;SDS011;10470;42.670;23.354;2023-02-12T19:18:22;76.17;;;41.43;;
20621;SDS011;10470;42.670;23.354;2023-02-12T19:21:09;73.80;;;38.60;;
20621;SDS011;10470;42.670;23.354;2023-02-12T19:23:58;76.07;;;39.77;;